Terminal Aerodrome Forecast
Issued by NWS Bismarck, ND

Home | Current Version | Previous Version | Text Only | Print | Product List | Glossary Off
Versions: 1 2 3 4 5 6 7 8 9 10 11 12 13 14 15 16

000
FTUS43 KBIS 011655 AAB
TAFBIS
TAF AMD
KBIS 011655Z 0117/0212 05005KT P6SM BKN030 OVC040
     FM011800 08005KT P6SM SCT040 BKN080
     FM020000 05006KT P6SM VCTS SCT040CB BKN080
     FM020600 VRB01KT 4SM BR BKN030=

USA.gov is the U.S. government's official web portal to all federal, state and local government web resources and services.